createdAt,value
2022-08-18T00:01:06.698Z,100998.22
2022-08-18T00:03:56.172Z,100998.00
2022-08-18T00:06:19.891Z,100998.19
2022-08-18T00:08:46.285Z,100994.28
2022-08-18T00:11:14.765Z,101006.50
2022-08-18T00:13:41.108Z,101002.75
2022-08-18T00:16:07.427Z,101004.03
2022-08-18T00:18:33.744Z,100989.94
2022-08-18T00:21:00.182Z,101005.25
2022-08-18T00:23:26.498Z,100995.72
2022-08-18T00:25:52.832Z,101000.47
2022-08-18T00:28:20.500Z,101003.59
2022-08-18T00:30:50.306Z,101005.66
2022-08-18T00:33:21.045Z,101008.28
2022-08-18T00:35:47.386Z,101010.16
2022-08-18T00:38:24.518Z,101013.66
2022-08-18T00:40:52.744Z,101017.56
2022-08-18T00:43:31.966Z,101013.03
2022-08-18T00:45:58.351Z,101013.03
2022-08-18T00:48:25.659Z,101016.75
2022-08-18T00:50:53.117Z,101008.03
2022-08-18T00:53:21.320Z,101003.91
2022-08-18T00:55:54.067Z,100995.00
2022-08-18T00:58:24.469Z,100999.97
2022-08-18T01:00:51.275Z,101003.88
2022-08-18T01:03:24.563Z,101006.38
2022-08-18T01:05:55.275Z,101005.13
2022-08-18T01:08:28.430Z,100994.41
2022-08-18T01:10:55.929Z,100991.47
2022-08-18T01:13:26.932Z,100991.47
2022-08-18T01:15:53.259Z,100988.16
2022-08-18T01:18:19.594Z,100991.88
2022-08-18T01:20:50.632Z,100990.63
2022-08-18T01:23:20.683Z,100996.66
2022-08-18T01:25:47.968Z,100995.19
2022-08-18T01:28:14.270Z,100997.50
2022-08-18T01:30:45.506Z,100995.22
2022-08-18T01:33:11.820Z,100998.34
2022-08-18T01:35:41.916Z,100993.38
2022-08-18T01:38:08.453Z,100999.38
2022-08-18T01:41:27.543Z,101003.53
2022-08-18T01:43:22.412Z,101005.19
2022-08-18T01:45:48.868Z,101012.25
2022-08-18T01:48:15.247Z,101014.69
2022-08-18T01:50:41.555Z,101007.28
2022-08-18T01:53:08.306Z,101016.00
2022-08-18T01:55:36.967Z,101014.75
2022-08-18T01:58:03.791Z,101014.34
2022-08-18T02:00:30.144Z,101006.88
2022-08-18T02:03:01.676Z,101001.31
2022-08-18T02:05:32.047Z,101010.63
2022-08-18T02:07:58.794Z,101012.28
2022-08-18T02:10:25.169Z,101019.97
2022-08-18T02:12:52.847Z,101020.56
2022-08-18T02:15:19.295Z,101026.78
2022-08-18T02:17:46.079Z,101031.13
2022-08-18T02:20:14.046Z,101029.25
2022-08-18T02:22:40.796Z,101036.31
2022-08-18T02:25:07.834Z,101032.59
2022-08-18T02:27:34.374Z,101031.75
2022-08-18T02:30:03.951Z,101036.31
2022-08-18T02:32:31.487Z,101031.75
2022-08-18T02:34:57.852Z,101031.97
2022-08-18T02:37:24.176Z,101033.81
2022-08-18T02:39:50.671Z,101034.66
2022-08-18T02:42:17.441Z,101026.56
2022-08-18T02:44:43.780Z,101033.81
2022-08-18T02:47:11.488Z,101030.09
2022-08-18T02:49:38.067Z,101027.41
2022-08-18T02:52:04.502Z,101024.09
2022-08-18T02:54:30.811Z,101029.47
2022-08-18T02:56:57.491Z,101029.66
2022-08-18T02:59:24.743Z,101024.53
2022-08-18T03:01:52.245Z,101021.00
2022-08-18T03:04:25.413Z,101023.47
2022-08-18T03:06:55.099Z,101027.59
2022-08-18T03:09:21.954Z,101019.34
2022-08-18T03:11:48.450Z,101021.00
2022-08-18T03:14:15.268Z,101021.63
2022-08-18T03:16:47.209Z,101020.78
2022-08-18T03:19:23.058Z,101034.25
2022-08-18T03:21:49.419Z,101034.03
2022-08-18T03:24:22.451Z,101038.59
2022-08-18T03:26:49.801Z,101041.09
2022-08-18T03:29:16.399Z,101037.78
2022-08-18T03:31:43.823Z,101033.63
2022-08-18T03:34:10.222Z,101025.53
2022-08-18T03:36:38.223Z,101025.53
2022-08-18T03:39:05.602Z,101019.34
2022-08-18T03:41:44.459Z,101012.28
2022-08-18T03:44:18.545Z,101011.66
2022-08-18T03:46:44.857Z,101010.84
2022-08-18T03:49:11.809Z,101006.50
2022-08-18T03:51:42.412Z,101005.88
2022-08-18T03:56:50.009Z,101001.09
2022-08-18T03:59:17.612Z,101010.81
2022-08-18T04:01:44.553Z,101012.84
2022-08-18T04:04:12.116Z,101011.22
2022-08-18T04:06:40.788Z,101011.81
2022-08-18T04:09:08.077Z,101008.47
2022-08-18T04:11:37.070Z,101007.84
2022-08-18T04:14:05.664Z,101010.53
2022-08-18T04:16:32.514Z,101009.31
2022-08-18T04:18:59.442Z,101004.97
2022-08-18T04:21:25.800Z,101006.81
2022-08-18T04:23:52.119Z,101014.69
2022-08-18T04:26:19.312Z,101014.69
2022-08-18T04:28:46.167Z,101012.59
2022-08-18T04:31:14.821Z,101018.41
2022-08-18T04:33:42.094Z,101021.53
2022-08-18T04:36:09.702Z,101017.19
2022-08-18T04:38:36.092Z,101015.53
2022-08-18T04:41:02.425Z,101025.94
2022-08-18T04:43:28.948Z,101026.56
2022-08-18T04:45:55.284Z,101028.84
2022-08-18T04:48:22.971Z,101031.72
2022-08-18T04:50:49.282Z,101037.13
2022-08-18T04:53:15.576Z,101033.59
2022-08-18T04:55:46.056Z,101040.25
2022-08-18T04:58:12.381Z,101033.19
2022-08-18T05:00:38.707Z,101038.78
2022-08-18T05:03:05.027Z,101045.59
2022-08-18T05:05:32.665Z,101047.44
2022-08-18T05:07:58.999Z,101045.81
2022-08-18T05:10:25.307Z,101051.59
2022-08-18T05:12:51.627Z,101051.81
2022-08-18T05:15:17.955Z,101062.78
2022-08-18T05:17:44.577Z,101057.41
2022-08-18T05:20:13.992Z,101062.38
2022-08-18T05:22:42.567Z,101064.03
2022-08-18T05:25:10.000Z,101066.72
2022-08-18T05:27:37.015Z,101066.09
2022-08-18T05:30:05.017Z,101066.53
2022-08-18T05:32:48.234Z,101074.38
2022-08-18T05:35:18.376Z,101082.66
2022-08-18T05:37:51.904Z,101083.88
2022-08-18T05:40:22.102Z,101080.16
2022-08-18T05:42:48.459Z,101071.91
2022-08-18T05:45:17.268Z,101078.50
2022-08-18T05:47:43.635Z,101080.59
2022-08-18T05:50:11.203Z,101077.28
2022-08-18T05:52:39.560Z,101081.44
2022-08-18T05:55:10.126Z,101076.09
2022-08-18T05:57:40.022Z,101070.69
2022-08-18T06:00:06.826Z,101075.22
2022-08-18T06:02:34.966Z,101076.03
2022-08-18T06:05:03.528Z,101079.78
2022-08-18T06:07:33.902Z,101087.22
2022-08-18T06:10:00.836Z,101083.28
2022-08-18T06:12:31.307Z,101078.75
2022-08-18T06:15:06.431Z,101081.44
2022-08-18T06:17:43.791Z,101078.94
2022-08-18T06:20:17.112Z,101083.53
2022-08-18T06:22:53.360Z,101077.28
2022-08-18T06:25:25.652Z,101082.69
2022-08-18T06:27:55.272Z,101082.28
2022-08-18T06:30:24.249Z,101086.44
2022-08-18T06:33:08.587Z,101072.97
2022-08-18T06:35:36.318Z,101081.25
2022-08-18T06:38:08.259Z,101086.84
2022-08-18T06:40:34.604Z,101092.03
2022-08-18T06:43:02.686Z,101092.47
2022-08-18T06:45:35.842Z,101095.16
2022-08-18T06:48:15.425Z,101100.53
2022-08-18T06:50:47.791Z,101098.25
2022-08-18T06:53:26.833Z,101105.13
2022-08-18T06:55:54.003Z,101107.38
2022-08-18T06:58:25.242Z,101119.19
2022-08-18T07:00:56.508Z,101126.69
2022-08-18T07:03:24.118Z,101117.75
2022-08-18T07:05:58.803Z,101117.97
2022-08-18T07:08:30.465Z,101120.69
2022-08-18T07:11:10.149Z,101113.63
2022-08-18T07:13:39.207Z,101113.81
2022-08-18T07:16:30.174Z,101113.88
2022-08-18T07:19:07.093Z,101126.28
2022-08-18T07:21:34.740Z,101126.72
2022-08-18T07:24:23.637Z,101130.25
2022-08-18T07:26:58.803Z,101129.19
2022-08-18T07:29:26.751Z,101122.75
2022-08-18T07:31:54.831Z,101119.41
2022-08-18T07:34:23.710Z,101124.59
2022-08-18T07:36:52.299Z,101119.41
2022-08-18T07:39:20.592Z,101117.38
2022-08-18T07:41:49.093Z,101120.91
2022-08-18T07:44:21.189Z,101118.78
2022-08-18T07:46:52.203Z,101123.75
2022-08-18T07:49:22.404Z,101115.88
2022-08-18T07:51:53.438Z,101112.94
2022-08-18T07:54:48.368Z,101105.91
2022-08-18T07:57:20.150Z,101111.72
2022-08-18T07:59:48.156Z,101100.72
2022-08-18T08:02:31.908Z,101103.59
2022-08-18T08:05:04.763Z,101112.06
2022-08-18T08:07:37.236Z,101126.38
2022-08-18T08:10:12.839Z,101119.53
2022-08-18T08:12:43.399Z,101117.41
2022-08-18T08:15:15.751Z,101121.75
2022-08-18T08:17:49.046Z,101126.16
2022-08-18T08:20:21.291Z,101114.50
2022-08-18T08:22:54.351Z,101118.38
2022-08-18T08:25:45.013Z,101122.94
2022-08-18T08:28:18.206Z,101130.56
2022-08-18T08:30:48.471Z,101131.41
2022-08-18T08:33:22.677Z,101121.06
2022-08-18T08:35:52.960Z,101132.09
2022-08-18T08:38:40.269Z,101129.41
2022-08-18T08:41:11.195Z,101135.19
2022-08-18T08:43:40.295Z,101138.88
2022-08-18T08:46:10.855Z,101138.78
2022-08-18T08:48:40.253Z,101146.81
2022-08-18T08:51:14.062Z,101149.66
2022-08-18T08:53:46.696Z,101148.38
2022-08-18T08:56:15.115Z,101149.81
2022-08-18T08:58:45.275Z,101146.06
2022-08-18T09:01:31.566Z,101144.84
2022-08-18T09:04:03.921Z,101150.78
2022-08-18T09:06:36.037Z,101153.50
2022-08-18T09:09:11.802Z,101149.75
2022-08-18T09:11:47.583Z,101151.50
2022-08-18T09:14:26.796Z,101151.16
2022-08-18T09:17:00.877Z,101151.38
2022-08-18T09:19:36.895Z,101155.94
2022-08-18T09:22:07.881Z,101155.03
2022-08-18T09:24:39.590Z,101158.09
2022-08-18T09:27:12.976Z,101147.06
2022-08-18T09:29:47.802Z,101153.50
2022-08-18T09:32:32.701Z,101147.97
2022-08-18T09:35:09.892Z,101137.97
2022-08-18T09:37:42.999Z,101142.91
2022-08-18T09:40:13.993Z,101139.38
2022-08-18T09:42:49.707Z,101146.19
2022-08-18T09:45:41.375Z,101151.66
2022-08-18T09:50:38.215Z,101149.13
2022-08-18T09:51:23.819Z,101155.47
2022-08-18T09:54:05.104Z,101146.22
2022-08-18T09:56:54.261Z,101150.28
2022-08-18T09:59:40.569Z,101149.97
2022-08-18T10:02:20.057Z,101139.09
2022-08-18T10:04:50.631Z,101145.78
2022-08-18T10:07:22.938Z,101133.03
2022-08-18T10:10:58.701Z,101142.66
2022-08-18T10:13:03.615Z,101142.03
2022-08-18T10:15:42.294Z,101142.16
2022-08-18T10:18:27.273Z,101144.50
2022-08-18T10:20:58.968Z,101146.84
2022-08-18T10:23:49.426Z,101135.56
2022-08-18T10:26:39.290Z,101133.19
2022-08-18T10:29:08.639Z,101132.53
2022-08-18T10:31:56.472Z,101123.69
2022-08-18T10:34:36.994Z,101124.66
2022-08-18T10:37:11.576Z,101131.00
2022-08-18T10:39:44.993Z,101133.59
2022-08-18T10:42:14.749Z,101134.31
2022-08-18T10:44:43.918Z,101126.00
2022-08-18T10:47:19.661Z,101128.84
2022-08-18T10:49:52.408Z,101126.41
2022-08-18T10:52:35.227Z,101128.41
2022-08-18T10:55:14.470Z,101131.34
2022-08-18T10:57:53.201Z,101126.03
2022-08-18T11:00:22.360Z,101115.28
2022-08-18T11:05:45.336Z,101116.94
2022-08-18T11:08:15.716Z,101113.31
2022-08-18T11:10:57.280Z,101103.59
2022-08-18T11:13:33.366Z,101102.91
2022-08-18T11:16:06.271Z,101088.84
2022-08-18T11:18:42.737Z,101085.00
2022-08-18T11:21:22.789Z,101083.50
2022-08-18T11:24:02.004Z,101083.94
2022-08-18T11:26:29.899Z,101079.53
2022-08-18T11:28:56.225Z,101080.56
2022-08-18T11:31:24.151Z,101081.63
2022-08-18T11:33:51.383Z,101078.72
2022-08-18T11:36:17.883Z,101064.69
2022-08-18T11:38:53.681Z,101058.34
2022-08-18T11:41:24.210Z,101068.31
2022-08-18T11:43:55.402Z,101069.75
2022-08-18T11:46:24.934Z,101062.63
2022-08-18T11:48:57.508Z,101054.34
2022-08-18T11:51:26.988Z,101055.38
2022-08-18T11:53:58.677Z,101049.44
2022-08-18T11:56:30.786Z,101045.69
2022-08-18T11:58:59.279Z,101047.31
2022-08-18T12:01:28.513Z,101048.72
2022-08-18T12:04:09.545Z,101061.41
2022-08-18T12:06:38.041Z,101066.25
2022-08-18T12:09:19.981Z,101075.38
2022-08-18T12:12:03.287Z,101061.41
2022-08-18T12:14:35.474Z,101053.06
2022-08-18T12:17:03.041Z,101059.06
2022-08-18T12:19:30.893Z,101062.22
2022-08-18T12:21:59.321Z,101052.38
2022-08-18T12:24:28.802Z,101060.91
2022-08-18T12:27:01.063Z,101058.63
2022-08-18T12:29:33.089Z,101066.03
2022-08-18T12:32:17.969Z,101060.75
2022-08-18T12:35:02.052Z,101066.03
2022-08-18T12:40:19.849Z,101072.19
2022-08-18T12:42:49.104Z,101079.50
2022-08-18T12:45:16.264Z,101080.09
2022-08-18T12:47:42.599Z,101076.22
2022-08-18T12:50:10.623Z,101084.19
2022-08-18T12:52:36.999Z,101084.38
2022-08-18T12:55:05.829Z,101094.03
2022-08-18T12:57:51.738Z,101096.47
2022-08-18T13:00:18.734Z,101092.69
2022-08-18T13:02:45.172Z,101105.91
2022-08-18T13:05:12.828Z,101101.59
2022-08-18T13:07:39.176Z,101105.50
2022-08-18T13:10:06.611Z,101110.44
2022-08-18T13:12:32.929Z,101109.91
2022-08-18T13:14:59.922Z,101105.66
2022-08-18T13:17:29.425Z,101107.88
2022-08-18T13:20:00.682Z,101102.94
2022-08-18T13:22:32.817Z,101095.00
2022-08-18T13:24:59.722Z,101090.34
2022-08-18T13:27:26.712Z,101078.94
2022-08-18T13:29:59.185Z,101069.41
2022-08-18T13:32:25.579Z,101066.50
2022-08-18T13:34:54.528Z,101069.84
2022-08-18T13:37:23.054Z,101065.75
2022-08-18T13:39:52.923Z,101068.69
2022-08-18T13:42:26.708Z,101071.31
2022-08-18T13:44:58.922Z,101070.53
2022-08-18T13:47:45.275Z,101068.31
2022-08-18T13:50:13.572Z,101055.09
2022-08-18T13:52:54.194Z,101044.75
2022-08-18T13:55:21.971Z,101049.84
2022-08-18T13:57:49.843Z,101043.50
2022-08-18T14:00:18.327Z,101048.00
2022-08-18T14:02:47.112Z,101048.47
2022-08-18T14:05:14.118Z,101036.34
2022-08-18T14:07:40.459Z,101029.91
2022-08-18T14:10:10.753Z,101028.81
2022-08-18T14:12:41.708Z,101031.41
2022-08-18T14:15:10.040Z,101026.34
2022-08-18T14:17:36.352Z,101020.66
2022-08-18T14:20:03.839Z,101015.31
2022-08-18T14:22:30.174Z,101022.19
2022-08-18T14:24:57.015Z,101008.94
2022-08-18T14:27:26.184Z,101008.97
2022-08-18T14:29:55.133Z,101010.59
2022-08-18T14:32:29.370Z,101011.66
2022-08-18T14:35:00.268Z,101024.78
2022-08-18T14:37:28.222Z,101020.75
2022-08-18T14:39:55.677Z,101012.69
2022-08-18T14:42:41.392Z,101009.47
2022-08-18T14:45:17.670Z,101006.97
2022-08-18T14:47:57.750Z,101002.72
2022-08-18T14:50:25.643Z,101001.06
2022-08-18T14:52:52.735Z,100998.34
2022-08-18T14:55:20.178Z,100994.69
2022-08-18T14:57:46.716Z,100997.78
2022-08-18T15:00:17.376Z,100998.53
2022-08-18T15:02:47.446Z,100994.97
2022-08-18T15:05:19.592Z,100996.31
2022-08-18T15:07:51.036Z,100998.69
2022-08-18T15:10:19.934Z,100992.66
2022-08-18T15:12:50.206Z,100998.22
2022-08-18T15:15:18.528Z,101000.72
2022-08-18T15:17:44.965Z,101000.00
2022-08-18T15:20:17.005Z,100997.75
2022-08-18T15:22:45.262Z,100994.50
2022-08-18T15:25:11.588Z,101001.78
2022-08-18T15:27:42.632Z,101000.53
2022-08-18T15:30:12.615Z,101003.16
2022-08-18T15:32:49.879Z,101004.00
2022-08-18T15:35:16.826Z,101003.75
2022-08-18T15:37:44.251Z,101005.97
2022-08-18T15:40:30.591Z,101006.03
2022-08-18T15:43:01.249Z,101005.44
2022-08-18T15:45:28.750Z,101007.44
2022-08-18T15:48:03.666Z,100998.69
2022-08-18T15:50:30.899Z,101005.66
2022-08-18T15:52:59.942Z,101007.69
2022-08-18T15:55:27.650Z,101004.09
2022-08-18T15:57:58.058Z,100998.22
2022-08-18T16:00:25.983Z,101004.69
2022-08-18T16:02:53.517Z,101010.28
2022-08-18T16:05:21.198Z,101002.69
2022-08-18T16:07:47.842Z,100994.16
2022-08-18T16:10:14.811Z,100996.88
2022-08-18T16:12:45.682Z,101004.50
2022-08-18T16:17:44.457Z,100997.69
2022-08-18T16:20:14.031Z,100992.25
2022-08-18T16:22:41.709Z,100982.94
2022-08-18T16:25:08.678Z,100994.16
2022-08-18T16:27:35.147Z,100984.13
2022-08-18T16:30:01.937Z,100991.13
2022-08-18T16:32:28.263Z,100986.09
2022-08-18T16:34:54.575Z,100987.41
2022-08-18T16:37:20.871Z,100988.50
2022-08-18T16:39:48.609Z,100988.69
2022-08-18T16:42:14.982Z,101003.25
2022-08-18T16:44:41.345Z,100996.34
2022-08-18T16:47:07.751Z,100999.00
2022-08-18T16:49:34.793Z,100997.59
2022-08-18T16:52:01.294Z,101001.66
2022-08-18T16:54:27.870Z,100994.06
2022-08-18T16:56:55.631Z,100989.13
2022-08-18T16:59:22.103Z,100987.38
2022-08-18T17:01:48.832Z,100996.06
2022-08-18T17:04:20.847Z,100979.41
2022-08-18T17:06:47.948Z,100986.56
2022-08-18T17:09:14.465Z,100982.19
2022-08-18T17:11:48.150Z,100976.25
2022-08-18T17:14:20.010Z,100982.63
2022-08-18T17:16:46.439Z,100976.66
2022-08-18T17:19:12.763Z,100980.47
2022-08-18T17:21:39.114Z,100972.31
2022-08-18T17:24:07.252Z,100972.31
2022-08-18T17:26:39.879Z,100965.28
2022-08-18T17:29:12.909Z,100970.81
2022-08-18T17:31:42.855Z,100968.47
2022-08-18T17:34:12.708Z,100953.56
2022-08-18T17:36:42.372Z,100956.63
2022-08-18T17:39:22.163Z,100958.91
2022-08-18T17:41:49.018Z,100959.56
2022-08-18T17:44:15.350Z,100958.22
2022-08-18T17:46:43.043Z,100957.94
2022-08-18T17:49:11.790Z,100960.66
2022-08-18T17:51:43.529Z,100962.69
2022-08-18T17:54:14.966Z,100960.66
2022-08-18T17:56:44.794Z,100959.06
2022-08-18T17:59:45.714Z,100964.50
2022-08-18T18:02:09.479Z,100960.56
2022-08-18T18:04:55.494Z,100961.25
2022-08-18T18:07:23.676Z,100963.88
2022-08-18T18:09:54.707Z,100971.06
2022-08-18T18:12:23.211Z,100968.72
2022-08-18T18:14:49.907Z,100970.63
2022-08-18T18:17:18.711Z,100963.72
2022-08-18T18:19:46.655Z,100971.44
2022-08-18T18:22:17.622Z,100962.78
2022-08-18T18:24:48.963Z,100969.88
2022-08-18T18:27:24.451Z,100965.09
2022-08-18T18:29:54.839Z,100956.66
2022-08-18T18:32:25.075Z,100962.38
2022-08-18T18:35:01.536Z,100962.88
2022-08-18T18:37:29.299Z,100968.13
2022-08-18T18:39:57.079Z,100969.81
2022-08-18T18:42:24.423Z,100971.03
2022-08-18T18:44:52.078Z,100971.41
2022-08-18T18:47:25.952Z,100965.28
2022-08-18T18:50:00.592Z,100964.84
2022-08-18T18:52:33.824Z,100961.91
2022-08-18T18:55:02.278Z,100966.41
2022-08-18T18:57:34.894Z,100976.28
2022-08-18T19:00:05.356Z,100967.47
2022-08-18T19:02:40.380Z,100972.66
2022-08-18T19:05:16.656Z,100974.06
2022-08-18T19:07:50.518Z,100980.66
2022-08-18T19:10:19.172Z,100982.44
2022-08-18T19:12:50.879Z,100982.75
2022-08-18T19:15:19.265Z,100979.34
2022-08-18T19:17:48.955Z,100994.28
2022-08-18T19:20:18.011Z,100989.19
2022-08-18T19:22:49.674Z,100985.97
2022-08-18T19:25:19.277Z,100992.53
2022-08-18T19:27:48.122Z,100985.59
2022-08-18T19:30:15.523Z,100998.16
2022-08-18T19:32:43.831Z,101000.75
2022-08-18T19:35:14.610Z,100995.16
2022-08-18T19:37:55.851Z,100995.06
2022-08-18T19:40:27.149Z,100998.06
2022-08-18T19:42:58.591Z,101002.97
2022-08-18T19:45:28.125Z,100996.22
2022-08-18T19:47:56.583Z,100998.16
2022-08-18T19:50:25.826Z,100994.47
2022-08-18T19:53:02.348Z,100989.50
2022-08-18T19:55:34.486Z,100997.47
2022-08-18T19:58:11.335Z,101001.91
2022-08-18T20:00:42.125Z,101008.59
2022-08-18T20:03:17.906Z,101003.66
2022-08-18T20:05:50.227Z,100999.59
2022-08-18T20:08:34.257Z,101012.34
2022-08-18T20:11:19.174Z,101003.69
2022-08-18T20:13:45.824Z,101002.94
2022-08-18T20:16:14.391Z,101017.50
2022-08-18T20:18:42.008Z,101011.09
2022-08-18T20:21:26.298Z,101009.91
2022-08-18T20:23:59.884Z,101008.91
2022-08-18T20:26:44.503Z,101001.66
2022-08-18T20:29:11.801Z,101007.28
2022-08-18T20:31:46.417Z,101008.56
2022-08-18T20:34:14.614Z,101006.06
2022-08-18T20:36:42.460Z,101001.13
2022-08-18T20:39:28.698Z,100998.47
2022-08-18T20:41:56.487Z,101001.84
2022-08-18T20:44:38.283Z,101014.94
2022-08-18T20:47:19.499Z,101005.41
2022-08-18T20:49:54.108Z,101012.06
2022-08-18T20:52:29.613Z,101015.81
2022-08-18T20:55:03.128Z,101010.88
2022-08-18T20:57:40.139Z,101012.13
2022-08-18T21:00:08.012Z,101005.50
2022-08-18T21:02:35.671Z,101010.06
2022-08-18T21:05:01.991Z,101004.91
2022-08-18T21:07:37.443Z,101001.81
2022-08-18T21:10:12.685Z,101008.91
2022-08-18T21:12:51.819Z,101013.31
2022-08-18T21:15:19.132Z,101017.69
2022-08-18T21:17:45.475Z,101023.75
2022-08-18T21:20:14.004Z,101031.88
2022-08-18T21:22:41.201Z,101029.44
2022-08-18T21:25:10.510Z,101030.69
2022-08-18T21:27:38.135Z,101028.16
2022-08-18T21:30:07.851Z,101030.50
2022-08-18T21:32:35.247Z,101034.03
2022-08-18T21:35:02.426Z,101025.94
2022-08-18T21:37:28.775Z,101029.88
2022-08-18T21:39:58.174Z,101028.22
2022-08-18T21:42:25.537Z,101025.34
2022-08-18T21:44:53.885Z,101025.78
2022-08-18T21:47:23.832Z,101028.88
2022-08-18T21:50:01.410Z,101029.56
2022-08-18T21:52:28.966Z,101031.41
2022-08-18T21:54:57.295Z,101035.78
2022-08-18T21:57:24.997Z,101033.72
2022-08-18T22:00:10.547Z,101040.78
2022-08-18T22:02:38.440Z,101035.00
2022-08-18T22:05:05.130Z,101039.75
2022-08-18T22:07:35.126Z,101040.41
2022-08-18T22:10:02.894Z,101039.78
2022-08-18T22:12:33.195Z,101040.63
2022-08-18T22:15:05.106Z,101048.28
2022-08-18T22:17:32.974Z,101049.34
2022-08-18T22:20:18.079Z,101047.47
2022-08-18T22:22:45.818Z,101045.22
2022-08-18T22:25:12.141Z,101037.53
2022-08-18T22:27:38.597Z,101041.31
2022-08-18T22:30:05.349Z,101049.38
2022-08-18T22:32:32.511Z,101044.19
2022-08-18T22:34:58.846Z,101043.81
2022-08-18T22:37:26.186Z,101051.25
2022-08-18T22:39:55.665Z,101040.69
2022-08-18T22:42:24.371Z,101037.53
2022-08-18T22:44:51.007Z,101045.03
2022-08-18T22:47:17.490Z,101042.53
2022-08-18T22:49:43.883Z,101039.63
2022-08-18T22:52:14.355Z,101049.59
2022-08-18T22:54:40.771Z,101055.78
2022-08-18T22:57:11.272Z,101054.38
2022-08-18T22:59:42.663Z,101045.25
2022-08-18T23:02:09.538Z,101062.84
2022-08-18T23:04:35.932Z,101051.47
2022-08-18T23:07:02.294Z,101054.97
2022-08-18T23:09:30.226Z,101055.81
2022-08-18T23:11:57.839Z,101051.03
2022-08-18T23:14:25.635Z,101052.88
2022-08-18T23:16:52.072Z,101047.47
2022-08-18T23:19:19.116Z,101046.25
2022-08-18T23:21:46.118Z,101048.50
2022-08-18T23:24:14.213Z,101051.00
2022-08-18T23:26:40.688Z,101043.31
2022-08-18T23:29:07.988Z,101052.22
2022-08-18T23:31:35.648Z,101051.41
2022-08-18T23:34:01.989Z,101044.34
2022-08-18T23:36:28.677Z,101050.38
2022-08-18T23:38:55.041Z,101044.53
2022-08-18T23:41:21.388Z,101052.75
2022-08-18T23:43:53.000Z,101044.88
2022-08-18T23:46:20.232Z,101038.84
2022-08-18T23:48:47.966Z,101053.53
2022-08-18T23:51:23.949Z,101041.75
2022-08-18T23:53:50.391Z,101043.41
2022-08-18T23:56:16.971Z,101039.88
2022-08-18T23:58:46.142Z,101047.13
